sensor_id;sensor_type;location;lat;lon;timestamp;pressure;altitude;pressure_sealevel;temperature;humidity
3122;BME280;1571;52.524;14.104;2022-07-29T00:01:30;101375.72;;;13.87;88.00
3122;BME280;1571;52.524;14.104;2022-07-29T00:03:58;101382.97;;;13.85;89.67
3122;BME280;1571;52.524;14.104;2022-07-29T00:06:26;101377.44;;;13.88;89.34
3122;BME280;1571;52.524;14.104;2022-07-29T00:08:55;101381.47;;;13.81;89.67
3122;BME280;1571;52.524;14.104;2022-07-29T00:11:24;101389.00;;;13.74;89.50
3122;BME280;1571;52.524;14.104;2022-07-29T00:13:52;101377.59;;;13.72;90.29
3122;BME280;1571;52.524;14.104;2022-07-29T00:16:20;101380.09;;;13.61;90.21
3122;BME280;1571;52.524;14.104;2022-07-29T00:18:50;101378.28;;;13.62;90.75
3122;BME280;1571;52.524;14.104;2022-07-29T00:21:18;101379.84;;;13.51;91.04
3122;BME280;1571;52.524;14.104;2022-07-29T00:23:46;101378.91;;;13.38;92.03
3122;BME280;1571;52.524;14.104;2022-07-29T00:26:14;101369.50;;;13.32;92.72
3122;BME280;1571;52.524;14.104;2022-07-29T00:28:44;101373.75;;;13.35;92.16
3122;BME280;1571;52.524;14.104;2022-07-29T00:31:12;101369.19;;;13.37;91.94
3122;BME280;1571;52.524;14.104;2022-07-29T00:33:41;101368.06;;;13.12;92.30
3122;BME280;1571;52.524;14.104;2022-07-29T00:36:09;101362.84;;;13.11;93.71
3122;BME280;1571;52.524;14.104;2022-07-29T00:38:36;101372.72;;;13.38;93.04
3122;BME280;1571;52.524;14.104;2022-07-29T00:41:04;101371.56;;;13.42;92.30
3122;BME280;1571;52.524;14.104;2022-07-29T00:43:32;101365.97;;;13.18;93.33
3122;BME280;1571;52.524;14.104;2022-07-29T00:46:02;101374.91;;;13.17;93.66
3122;BME280;1571;52.524;14.104;2022-07-29T00:48:30;101368.91;;;13.27;92.78
3122;BME280;1571;52.524;14.104;2022-07-29T00:51:01;101356.06;;;13.05;93.47
3122;BME280;1571;52.524;14.104;2022-07-29T00:53:31;101360.91;;;13.27;93.53
3122;BME280;1571;52.524;14.104;2022-07-29T00:56:00;101365.63;;;12.95;93.57
3122;BME280;1571;52.524;14.104;2022-07-29T00:58:28;101359.97;;;13.14;94.59
3122;BME280;1571;52.524;14.104;2022-07-29T01:00:57;101365.22;;;13.30;94.04
3122;BME280;1571;52.524;14.104;2022-07-29T01:03:27;101355.09;;;13.21;93.56
3122;BME280;1571;52.524;14.104;2022-07-29T01:05:55;101361.50;;;13.18;93.59
3122;BME280;1571;52.524;14.104;2022-07-29T01:08:24;101365.22;;;13.30;93.44
3122;BME280;1571;52.524;14.104;2022-07-29T01:10:52;101365.66;;;13.37;92.93
3122;BME280;1571;52.524;14.104;2022-07-29T01:13:22;101354.25;;;13.35;92.61
3122;BME280;1571;52.524;14.104;2022-07-29T01:15:54;101358.72;;;13.20;93.33
3122;BME280;1571;52.524;14.104;2022-07-29T01:18:31;101348.16;;;13.32;92.83
3122;BME280;1571;52.524;14.104;2022-07-29T01:21:21;101338.25;;;13.20;92.60
3122;BME280;1571;52.524;14.104;2022-07-29T01:24:03;101341.97;;;13.32;92.86
3122;BME280;1571;52.524;14.104;2022-07-29T01:26:42;101332.63;;;13.25;93.09
3122;BME280;1571;52.524;14.104;2022-07-29T01:29:23;101328.34;;;13.22;92.96
3122;BME280;1571;52.524;14.104;2022-07-29T01:31:59;101328.53;;;13.19;93.30
3122;BME280;1571;52.524;14.104;2022-07-29T01:34:35;101333.97;;;13.18;93.69
3122;BME280;1571;52.524;14.104;2022-07-29T01:37:10;101325.69;;;13.22;94.39
3122;BME280;1571;52.524;14.104;2022-07-29T01:39:42;101329.59;;;13.31;93.69
3122;BME280;1571;52.524;14.104;2022-07-29T01:42:17;101325.50;;;13.40;92.94
3122;BME280;1571;52.524;14.104;2022-07-29T01:44:54;101327.13;;;13.13;94.07
3122;BME280;1571;52.524;14.104;2022-07-29T01:47:26;101320.00;;;13.28;94.02
3122;BME280;1571;52.524;14.104;2022-07-29T01:50:05;101314.06;;;13.23;94.51
3122;BME280;1571;52.524;14.104;2022-07-29T01:52:39;101314.09;;;13.09;95.14
3122;BME280;1571;52.524;14.104;2022-07-29T01:55:12;101309.34;;;12.85;95.85
3122;BME280;1571;52.524;14.104;2022-07-29T01:57:43;101306.25;;;13.20;95.99
3122;BME280;1571;52.524;14.104;2022-07-29T02:00:15;101296.19;;;13.11;95.55
3122;BME280;1571;52.524;14.104;2022-07-29T02:02:45;101293.63;;;13.09;96.39
3122;BME280;1571;52.524;14.104;2022-07-29T02:05:17;101289.22;;;13.23;95.48
3122;BME280;1571;52.524;14.104;2022-07-29T02:07:47;101285.56;;;13.24;94.47
3122;BME280;1571;52.524;14.104;2022-07-29T02:10:19;101284.47;;;13.13;95.58
3122;BME280;1571;52.524;14.104;2022-07-29T02:12:54;101277.84;;;13.06;96.05
3122;BME280;1571;52.524;14.104;2022-07-29T02:15:25;101274.28;;;13.06;95.91
3122;BME280;1571;52.524;14.104;2022-07-29T02:17:58;101270.53;;;13.23;95.63
3122;BME280;1571;52.524;14.104;2022-07-29T02:20:28;101270.44;;;12.97;95.98
3122;BME280;1571;52.524;14.104;2022-07-29T02:22:58;101271.22;;;12.70;97.48
3122;BME280;1571;52.524;14.104;2022-07-29T02:25:27;101264.81;;;12.87;97.94
3122;BME280;1571;52.524;14.104;2022-07-29T02:28:05;101271.56;;;12.93;97.53
3122;BME280;1571;52.524;14.104;2022-07-29T02:30:39;101269.00;;;12.91;97.41
3122;BME280;1571;52.524;14.104;2022-07-29T02:33:10;101266.28;;;12.64;97.92
3122;BME280;1571;52.524;14.104;2022-07-29T02:35:40;101277.75;;;12.94;98.45
3122;BME280;1571;52.524;14.104;2022-07-29T02:38:12;101272.41;;;12.94;97.38
3122;BME280;1571;52.524;14.104;2022-07-29T02:41:00;101281.59;;;12.75;98.01
3122;BME280;1571;52.524;14.104;2022-07-29T02:43:30;101291.00;;;12.95;98.12
3122;BME280;1571;52.524;14.104;2022-07-29T02:46:00;101278.66;;;12.65;99.42
3122;BME280;1571;52.524;14.104;2022-07-29T02:48:41;101287.84;;;12.88;98.86
3122;BME280;1571;52.524;14.104;2022-07-29T02:51:17;101285.78;;;12.79;98.61
3122;BME280;1571;52.524;14.104;2022-07-29T02:54:09;101291.94;;;12.94;98.28
3122;BME280;1571;52.524;14.104;2022-07-29T02:56:39;101295.19;;;12.70;99.05
3122;BME280;1571;52.524;14.104;2022-07-29T02:59:11;101301.19;;;12.88;99.28
3122;BME280;1571;52.524;14.104;2022-07-29T03:01:43;101293.44;;;12.98;98.40
3122;BME280;1571;52.524;14.104;2022-07-29T03:04:14;101295.34;;;12.96;98.13
3122;BME280;1571;52.524;14.104;2022-07-29T03:06:44;101289.84;;;12.85;98.25
3122;BME280;1571;52.524;14.104;2022-07-29T03:09:13;101288.16;;;12.84;98.83
3122;BME280;1571;52.524;14.104;2022-07-29T03:11:42;101282.41;;;12.90;98.96
3122;BME280;1571;52.524;14.104;2022-07-29T03:14:18;101279.38;;;12.67;99.38
3122;BME280;1571;52.524;14.104;2022-07-29T03:16:49;101279.59;;;12.64;100.00
3122;BME280;1571;52.524;14.104;2022-07-29T03:19:19;101277.13;;;12.76;100.00
3122;BME280;1571;52.524;14.104;2022-07-29T03:21:48;101279.78;;;12.76;100.00
3122;BME280;1571;52.524;14.104;2022-07-29T03:24:29;101283.09;;;12.65;100.00
3122;BME280;1571;52.524;14.104;2022-07-29T03:26:58;101286.63;;;12.51;100.00
3122;BME280;1571;52.524;14.104;2022-07-29T03:29:26;101284.94;;;12.50;100.00
3122;BME280;1571;52.524;14.104;2022-07-29T03:32:03;101278.66;;;12.65;100.00
3122;BME280;1571;52.524;14.104;2022-07-29T03:34:35;101275.31;;;12.62;100.00
3122;BME280;1571;52.524;14.104;2022-07-29T03:37:05;101279.38;;;12.67;100.00
3122;BME280;1571;52.524;14.104;2022-07-29T03:39:37;101279.22;;;12.70;100.00
3122;BME280;1571;52.524;14.104;2022-07-29T03:42:08;101283.78;;;12.68;100.00
3122;BME280;1571;52.524;14.104;2022-07-29T03:44:40;101286.59;;;12.94;100.00
3122;BME280;1571;52.524;14.104;2022-07-29T03:47:13;101284.44;;;12.72;100.00
3122;BME280;1571;52.524;14.104;2022-07-29T03:49:44;101279.00;;;12.88;100.00
3122;BME280;1571;52.524;14.104;2022-07-29T03:52:14;101287.66;;;12.91;100.00
3122;BME280;1571;52.524;14.104;2022-07-29T03:54:43;101286.13;;;13.02;100.00
3122;BME280;1571;52.524;14.104;2022-07-29T03:57:11;101283.75;;;12.97;99.99
3122;BME280;1571;52.524;14.104;2022-07-29T03:59:41;101285.53;;;12.97;100.00
3122;BME280;1571;52.524;14.104;2022-07-29T04:02:11;101281.84;;;12.99;100.00
3122;BME280;1571;52.524;14.104;2022-07-29T04:04:43;101269.56;;;13.24;99.50
3122;BME280;1571;52.524;14.104;2022-07-29T04:07:12;101273.41;;;13.20;99.34
3122;BME280;1571;52.524;14.104;2022-07-29T04:09:41;101273.75;;;13.42;97.68
3122;BME280;1571;52.524;14.104;2022-07-29T04:12:09;101273.28;;;13.63;96.57
3122;BME280;1571;52.524;14.104;2022-07-29T04:14:38;101267.44;;;13.70;96.08
3122;BME280;1571;52.524;14.104;2022-07-29T04:17:06;101269.97;;;13.59;96.67
3122;BME280;1571;52.524;14.104;2022-07-29T04:19:36;101267.59;;;13.54;96.59
3122;BME280;1571;52.524;14.104;2022-07-29T04:22:04;101272.97;;;13.67;96.46
3122;BME280;1571;52.524;14.104;2022-07-29T04:24:32;101266.53;;;13.97;95.47
3122;BME280;1571;52.524;14.104;2022-07-29T04:27:00;101271.31;;;14.05;94.17
3122;BME280;1571;52.524;14.104;2022-07-29T04:29:28;101260.44;;;14.21;93.59
3122;BME280;1571;52.524;14.104;2022-07-29T04:31:57;101273.69;;;14.22;92.69
3122;BME280;1571;52.524;14.104;2022-07-29T04:34:25;101273.28;;;14.28;92.85
3122;BME280;1571;52.524;14.104;2022-07-29T04:36:55;101282.03;;;14.30;92.17
3122;BME280;1571;52.524;14.104;2022-07-29T04:39:24;101272.22;;;14.44;92.42
3122;BME280;1571;52.524;14.104;2022-07-29T04:41:56;101283.72;;;14.31;91.68
3122;BME280;1571;52.524;14.104;2022-07-29T04:44:25;101276.69;;;14.56;91.78
3122;BME280;1571;52.524;14.104;2022-07-29T04:46:56;101274.53;;;14.23;91.76
3122;BME280;1571;52.524;14.104;2022-07-29T04:49:24;101275.09;;;14.28;92.16
3122;BME280;1571;52.524;14.104;2022-07-29T04:51:53;101284.06;;;14.40;91.77
3122;BME280;1571;52.524;14.104;2022-07-29T04:54:23;101278.19;;;14.34;92.25
3122;BME280;1571;52.524;14.104;2022-07-29T04:56:52;101278.84;;;14.25;91.86
3122;BME280;1571;52.524;14.104;2022-07-29T04:59:20;101275.19;;;14.13;92.37
3122;BME280;1571;52.524;14.104;2022-07-29T05:01:48;101275.84;;;14.17;93.28
3122;BME280;1571;52.524;14.104;2022-07-29T05:04:17;101280.31;;;14.29;92.25
3122;BME280;1571;52.524;14.104;2022-07-29T05:06:47;101280.88;;;14.34;92.60
3122;BME280;1571;52.524;14.104;2022-07-29T05:09:15;101284.06;;;14.52;90.93
3122;BME280;1571;52.524;14.104;2022-07-29T05:11:45;101286.97;;;14.62;90.34
3122;BME280;1571;52.524;14.104;2022-07-29T05:14:13;101286.88;;;14.64;89.84
3122;BME280;1571;52.524;14.104;2022-07-29T05:16:42;101289.50;;;14.51;89.70
3122;BME280;1571;52.524;14.104;2022-07-29T05:19:10;101284.41;;;14.61;89.27
3122;BME280;1571;52.524;14.104;2022-07-29T05:21:40;101285.75;;;14.53;89.03
3122;BME280;1571;52.524;14.104;2022-07-29T05:24:09;101276.69;;;14.82;88.19
3122;BME280;1571;52.524;14.104;2022-07-29T05:26:37;101287.97;;;14.98;87.73
3122;BME280;1571;52.524;14.104;2022-07-29T05:29:07;101285.81;;;15.03;87.03
3122;BME280;1571;52.524;14.104;2022-07-29T05:32:04;101276.56;;;15.20;86.67
3122;BME280;1571;52.524;14.104;2022-07-29T05:34:32;101274.84;;;15.19;86.39
3122;BME280;1571;52.524;14.104;2022-07-29T05:37:01;101279.03;;;15.10;86.93
3122;BME280;1571;52.524;14.104;2022-07-29T05:39:29;101275.44;;;14.98;86.86
3122;BME280;1571;52.524;14.104;2022-07-29T05:42:16;101278.28;;;15.08;86.73
3122;BME280;1571;52.524;14.104;2022-07-29T05:44:45;101278.53;;;15.05;86.55
3122;BME280;1571;52.524;14.104;2022-07-29T05:47:15;101274.09;;;14.93;86.60
3122;BME280;1571;52.524;14.104;2022-07-29T05:49:43;101271.25;;;15.07;86.73
3122;BME280;1571;52.524;14.104;2022-07-29T05:52:13;101277.44;;;15.08;87.08
3122;BME280;1571;52.524;14.104;2022-07-29T05:54:41;101269.22;;;15.11;86.34
3122;BME280;1571;52.524;14.104;2022-07-29T05:57:15;101278.97;;;14.99;86.60
3122;BME280;1571;52.524;14.104;2022-07-29T05:59:43;101271.09;;;15.22;86.62
3122;BME280;1571;52.524;14.104;2022-07-29T06:02:11;101271.34;;;15.43;85.74
3122;BME280;1571;52.524;14.104;2022-07-29T06:04:41;101270.16;;;15.58;84.39
3122;BME280;1571;52.524;14.104;2022-07-29T06:07:09;101271.03;;;15.58;83.54
3122;BME280;1571;52.524;14.104;2022-07-29T06:09:38;101268.03;;;15.39;85.06
3122;BME280;1571;52.524;14.104;2022-07-29T06:12:06;101259.66;;;15.19;85.37
3122;BME280;1571;52.524;14.104;2022-07-29T06:14:35;101270.94;;;15.36;85.08
3122;BME280;1571;52.524;14.104;2022-07-29T06:17:05;101271.38;;;15.30;85.21
3122;BME280;1571;52.524;14.104;2022-07-29T06:19:34;101271.03;;;15.34;85.75
3122;BME280;1571;52.524;14.104;2022-07-29T06:22:04;101276.06;;;15.39;85.49
3122;BME280;1571;52.524;14.104;2022-07-29T06:24:32;101279.47;;;15.41;86.15
3122;BME280;1571;52.524;14.104;2022-07-29T06:27:00;101268.94;;;15.51;85.69
3122;BME280;1571;52.524;14.104;2022-07-29T06:29:29;101286.00;;;15.61;85.42
3122;BME280;1571;52.524;14.104;2022-07-29T06:31:57;101281.69;;;15.71;84.38
3122;BME280;1571;52.524;14.104;2022-07-29T06:34:25;101276.78;;;15.65;84.81
3122;BME280;1571;52.524;14.104;2022-07-29T06:36:54;101280.91;;;15.93;83.96
3122;BME280;1571;52.524;14.104;2022-07-29T06:39:23;101274.78;;;16.15;82.78
3122;BME280;1571;52.524;14.104;2022-07-29T06:41:52;101277.06;;;16.09;83.31
3122;BME280;1571;52.524;14.104;2022-07-29T06:44:24;101286.09;;;16.08;82.19
3122;BME280;1571;52.524;14.104;2022-07-29T06:46:52;101289.38;;;16.11;82.43
3122;BME280;1571;52.524;14.104;2022-07-29T06:49:21;101284.66;;;16.26;81.92
3122;BME280;1571;52.524;14.104;2022-07-29T06:51:51;101295.13;;;16.40;82.22
3122;BME280;1571;52.524;14.104;2022-07-29T06:54:19;101293.69;;;16.59;81.03
3122;BME280;1571;52.524;14.104;2022-07-29T06:56:49;101289.91;;;16.73;80.85
3122;BME280;1571;52.524;14.104;2022-07-29T06:59:18;101281.31;;;16.80;80.67
3122;BME280;1571;52.524;14.104;2022-07-29T07:01:56;101291.28;;;16.90;80.29
3122;BME280;1571;52.524;14.104;2022-07-29T07:04:24;101281.66;;;16.87;79.57
3122;BME280;1571;52.524;14.104;2022-07-29T07:06:53;101277.59;;;16.70;79.35
3122;BME280;1571;52.524;14.104;2022-07-29T07:09:22;101286.41;;;16.95;79.22
3122;BME280;1571;52.524;14.104;2022-07-29T07:12:07;101290.06;;;16.82;79.11
3122;BME280;1571;52.524;14.104;2022-07-29T07:14:35;101281.66;;;16.98;79.14
3122;BME280;1571;52.524;14.104;2022-07-29T07:17:03;101286.16;;;17.09;79.19
3122;BME280;1571;52.524;14.104;2022-07-29T07:19:33;101279.03;;;17.19;79.18
3122;BME280;1571;52.524;14.104;2022-07-29T07:22:02;101271.94;;;17.30;78.99
3122;BME280;1571;52.524;14.104;2022-07-29T07:24:30;101274.59;;;17.41;78.13
3122;BME280;1571;52.524;14.104;2022-07-29T07:26:58;101288.47;;;17.46;77.75
3122;BME280;1571;52.524;14.104;2022-07-29T07:29:28;101288.66;;;17.65;77.64
3122;BME280;1571;52.524;14.104;2022-07-29T07:31:57;101290.69;;;17.41;76.22
3122;BME280;1571;52.524;14.104;2022-07-29T07:34:27;101295.69;;;17.78;76.36
3122;BME280;1571;52.524;14.104;2022-07-29T07:36:57;101300.13;;;18.21;75.49
3122;BME280;1571;52.524;14.104;2022-07-29T07:39:25;101288.84;;;18.27;74.87
3122;BME280;1571;52.524;14.104;2022-07-29T07:41:53;101291.09;;;18.52;73.21
3122;BME280;1571;52.524;14.104;2022-07-29T07:44:22;101292.66;;;18.55;73.13
3122;BME280;1571;52.524;14.104;2022-07-29T07:46:51;101285.63;;;18.64;71.80
3122;BME280;1571;52.524;14.104;2022-07-29T07:49:20;101289.53;;;18.50;72.75
3122;BME280;1571;52.524;14.104;2022-07-29T07:51:49;101282.72;;;19.07;73.16
3122;BME280;1571;52.524;14.104;2022-07-29T07:54:17;101298.19;;;19.54;70.89
3122;BME280;1571;52.524;14.104;2022-07-29T07:56:47;101279.66;;;19.51;70.31
3122;BME280;1571;52.524;14.104;2022-07-29T07:59:19;101285.16;;;20.08;69.36
3122;BME280;1571;52.524;14.104;2022-07-29T08:01:48;101295.69;;;19.72;68.43
3122;BME280;1571;52.524;14.104;2022-07-29T08:04:23;101291.84;;;19.94;66.68
3122;BME280;1571;52.524;14.104;2022-07-29T08:06:55;101291.25;;;20.20;65.08
3122;BME280;1571;52.524;14.104;2022-07-29T08:09:25;101279.38;;;20.03;65.57
3122;BME280;1571;52.524;14.104;2022-07-29T08:11:57;101286.56;;;20.31;64.08
3122;BME280;1571;52.524;14.104;2022-07-29T08:14:25;101291.88;;;20.51;64.32
3122;BME280;1571;52.524;14.104;2022-07-29T08:16:53;101288.50;;;20.39;64.08
3122;BME280;1571;52.524;14.104;2022-07-29T08:19:23;101308.56;;;20.27;63.29
3122;BME280;1571;52.524;14.104;2022-07-29T08:21:52;101293.25;;;20.65;64.21
3122;BME280;1571;52.524;14.104;2022-07-29T08:24:21;101294.19;;;20.36;63.71
3122;BME280;1571;52.524;14.104;2022-07-29T08:27:06;101297.69;;;20.66;63.22
3122;BME280;1571;52.524;14.104;2022-07-29T08:29:55;101300.59;;;20.82;62.58
3122;BME280;1571;52.524;14.104;2022-07-29T08:32:23;101298.97;;;21.45;62.84
3122;BME280;1571;52.524;14.104;2022-07-29T08:35:13;101298.53;;;21.67;60.93
3122;BME280;1571;52.524;14.104;2022-07-29T08:37:41;101307.06;;;21.98;59.29
3122;BME280;1571;52.524;14.104;2022-07-29T08:40:11;101306.88;;;22.18;58.86
3122;BME280;1571;52.524;14.104;2022-07-29T08:42:39;101306.56;;;22.21;59.14
3122;BME280;1571;52.524;14.104;2022-07-29T08:45:08;101304.81;;;22.30;60.42
3122;BME280;1571;52.524;14.104;2022-07-29T08:47:38;101307.59;;;22.02;57.80
3122;BME280;1571;52.524;14.104;2022-07-29T08:50:08;101303.28;;;22.09;57.83
3122;BME280;1571;52.524;14.104;2022-07-29T08:52:40;101306.84;;;21.92;58.25
3122;BME280;1571;52.524;14.104;2022-07-29T08:55:09;101304.69;;;21.77;57.91
3122;BME280;1571;52.524;14.104;2022-07-29T08:57:38;101296.16;;;22.08;58.21
3122;BME280;1571;52.524;14.104;2022-07-29T09:00:17;101293.03;;;22.39;57.27
3122;BME280;1571;52.524;14.104;2022-07-29T09:02:47;101293.84;;;22.65;57.36
3122;BME280;1571;52.524;14.104;2022-07-29T09:05:19;101296.72;;;22.64;56.18
3122;BME280;1571;52.524;14.104;2022-07-29T09:07:49;101296.69;;;22.98;54.47
3122;BME280;1571;52.524;14.104;2022-07-29T09:10:18;101299.13;;;23.01;54.31
3122;BME280;1571;52.524;14.104;2022-07-29T09:12:46;101294.81;;;22.91;54.87
3122;BME280;1571;52.524;14.104;2022-07-29T09:15:15;101292.94;;;22.91;55.01
3122;BME280;1571;52.524;14.104;2022-07-29T09:17:46;101292.63;;;22.60;55.38
3122;BME280;1571;52.524;14.104;2022-07-29T09:20:17;101299.06;;;22.59;55.67
3122;BME280;1571;52.524;14.104;2022-07-29T09:22:46;101294.81;;;22.56;55.01
3122;BME280;1571;52.524;14.104;2022-07-29T09:28:11;101298.66;;;22.45;55.68
3122;BME280;1571;52.524;14.104;2022-07-29T09:30:50;101291.72;;;22.51;54.54
3122;BME280;1571;52.524;14.104;2022-07-29T09:33:19;101290.47;;;22.63;54.22
3122;BME280;1571;52.524;14.104;2022-07-29T09:35:59;101288.72;;;22.54;55.07
3122;BME280;1571;52.524;14.104;2022-07-29T09:38:28;101280.69;;;22.71;56.16
3122;BME280;1571;52.524;14.104;2022-07-29T09:40:57;101279.91;;;22.86;56.20
3122;BME280;1571;52.524;14.104;2022-07-29T09:43:33;101271.06;;;23.11;55.76
3122;BME280;1571;52.524;14.104;2022-07-29T09:46:11;101273.88;;;23.01;55.00
3122;BME280;1571;52.524;14.104;2022-07-29T09:48:40;101272.38;;;23.06;55.88
3122;BME280;1571;52.524;14.104;2022-07-29T09:51:17;101262.25;;;23.09;54.56
3122;BME280;1571;52.524;14.104;2022-07-29T09:53:50;101270.91;;;23.37;54.94
3122;BME280;1571;52.524;14.104;2022-07-29T09:56:19;101262.66;;;23.55;54.22
3122;BME280;1571;52.524;14.104;2022-07-29T09:59:05;101261.28;;;23.51;54.99
3122;BME280;1571;52.524;14.104;2022-07-29T10:01:33;101272.78;;;23.36;54.01
3122;BME280;1571;52.524;14.104;2022-07-29T10:04:03;101264.47;;;23.30;55.60
3122;BME280;1571;52.524;14.104;2022-07-29T10:06:31;101258.53;;;23.18;56.33
3122;BME280;1571;52.524;14.104;2022-07-29T10:09:08;101266.63;;;23.01;56.06
3122;BME280;1571;52.524;14.104;2022-07-29T10:11:37;101263.31;;;22.90;56.88
3122;BME280;1571;52.524;14.104;2022-07-29T10:14:17;101260.56;;;23.16;57.08
3122;BME280;1571;52.524;14.104;2022-07-29T10:16:45;101260.53;;;23.07;56.32
3122;BME280;1571;52.524;14.104;2022-07-29T10:19:14;101259.88;;;23.14;57.01
3122;BME280;1571;52.524;14.104;2022-07-29T10:21:42;101257.50;;;23.11;57.36
3122;BME280;1571;52.524;14.104;2022-07-29T10:24:11;101251.41;;;23.09;57.47
3122;BME280;1571;52.524;14.104;2022-07-29T10:26:41;101254.34;;;23.32;57.90
3122;BME280;1571;52.524;14.104;2022-07-29T10:29:09;101261.31;;;23.67;56.93
3122;BME280;1571;52.524;14.104;2022-07-29T10:31:45;101249.44;;;24.17;55.41
3122;BME280;1571;52.524;14.104;2022-07-29T10:34:23;101255.41;;;23.88;55.47
3122;BME280;1571;52.524;14.104;2022-07-29T10:37:05;101246.25;;;23.64;57.29
3122;BME280;1571;52.524;14.104;2022-07-29T10:39:46;101248.09;;;23.72;56.50
3122;BME280;1571;52.524;14.104;2022-07-29T10:42:21;101254.88;;;23.84;55.51
3122;BME280;1571;52.524;14.104;2022-07-29T10:45:01;101246.94;;;23.83;55.36
3122;BME280;1571;52.524;14.104;2022-07-29T10:47:32;101243.47;;;24.30;55.33
3122;BME280;1571;52.524;14.104;2022-07-29T10:50:03;101236.44;;;24.60;54.41
3122;BME280;1571;52.524;14.104;2022-07-29T10:52:53;101242.53;;;24.62;55.61
3122;BME280;1571;52.524;14.104;2022-07-29T10:55:33;101238.84;;;24.47;53.40
3122;BME280;1571;52.524;14.104;2022-07-29T10:58:14;101250.06;;;24.83;52.89
3122;BME280;1571;52.524;14.104;2022-07-29T11:00:45;101250.97;;;24.76;52.90
3122;BME280;1571;52.524;14.104;2022-07-29T11:03:46;101242.03;;;24.59;53.34
3122;BME280;1571;52.524;14.104;2022-07-29T11:06:18;101236.81;;;24.49;54.16
3122;BME280;1571;52.524;14.104;2022-07-29T11:09:15;101230.41;;;24.50;54.01
3122;BME280;1571;52.524;14.104;2022-07-29T11:11:46;101230.41;;;24.34;54.51
3122;BME280;1571;52.524;14.104;2022-07-29T11:14:17;101230.75;;;24.39;54.79
3122;BME280;1571;52.524;14.104;2022-07-29T11:17:01;101229.78;;;25.02;53.75
3122;BME280;1571;52.524;14.104;2022-07-29T11:19:35;101222.53;;;25.26;53.00
3122;BME280;1571;52.524;14.104;2022-07-29T11:22:08;101241.13;;;25.37;52.63
3122;BME280;1571;52.524;14.104;2022-07-29T11:24:37;101223.66;;;25.08;53.67
3122;BME280;1571;52.524;14.104;2022-07-29T11:27:18;101234.53;;;24.69;54.03
3122;BME280;1571;52.524;14.104;2022-07-29T11:29:49;101221.56;;;25.10;52.99
3122;BME280;1571;52.524;14.104;2022-07-29T11:32:20;101215.72;;;25.30;52.13
3122;BME280;1571;52.524;14.104;2022-07-29T11:35:12;101220.31;;;24.98;53.14
3122;BME280;1571;52.524;14.104;2022-07-29T11:37:45;101220.00;;;24.93;52.84
3122;BME280;1571;52.524;14.104;2022-07-29T11:40:23;101207.75;;;25.51;52.77
3122;BME280;1571;52.524;14.104;2022-07-29T11:42:52;101222.97;;;25.61;51.87
3122;BME280;1571;52.524;14.104;2022-07-29T11:45:25;101203.84;;;25.69;52.07
3122;BME280;1571;52.524;14.104;2022-07-29T11:48:18;101215.28;;;25.87;51.53
3122;BME280;1571;52.524;14.104;2022-07-29T11:50:59;101208.81;;;25.65;51.85
3122;BME280;1571;52.524;14.104;2022-07-29T11:53:29;101209.16;;;25.85;52.03
3122;BME280;1571;52.524;14.104;2022-07-29T11:56:00;101200.19;;;26.00;51.20
3122;BME280;1571;52.524;14.104;2022-07-29T11:58:30;101191.66;;;26.17;51.74
3122;BME280;1571;52.524;14.104;2022-07-29T12:00:59;101188.72;;;26.49;50.12
3122;BME280;1571;52.524;14.104;2022-07-29T12:03:31;101191.06;;;26.52;50.13
3122;BME280;1571;52.524;14.104;2022-07-29T12:06:11;101192.41;;;26.26;49.71
3122;BME280;1571;52.524;14.104;2022-07-29T12:08:42;101192.50;;;26.18;48.23
3122;BME280;1571;52.524;14.104;2022-07-29T12:11:17;101183.97;;;26.21;48.89
3122;BME280;1571;52.524;14.104;2022-07-29T12:13:49;101178.41;;;26.59;48.54
3122;BME280;1571;52.524;14.104;2022-07-29T12:16:18;101175.75;;;26.66;47.94
3122;BME280;1571;52.524;14.104;2022-07-29T12:18:59;101169.81;;;26.77;48.84
3122;BME280;1571;52.524;14.104;2022-07-29T12:21:43;101171.78;;;26.17;48.38
3122;BME280;1571;52.524;14.104;2022-07-29T12:24:22;101171.94;;;26.15;47.35
3122;BME280;1571;52.524;14.104;2022-07-29T12:26:54;101177.97;;;26.26;47.98
3122;BME280;1571;52.524;14.104;2022-07-29T12:29:23;101167.50;;;26.59;48.29
3122;BME280;1571;52.524;14.104;2022-07-29T12:32:02;101166.16;;;27.06;48.27
3122;BME280;1571;52.524;14.104;2022-07-29T12:34:31;101163.97;;;26.58;46.05
3122;BME280;1571;52.524;14.104;2022-07-29T12:37:01;101169.47;;;26.80;45.68
3122;BME280;1571;52.524;14.104;2022-07-29T12:39:30;101159.19;;;26.46;46.10
3122;BME280;1571;52.524;14.104;2022-07-29T12:41:58;101156.34;;;26.54;46.81
3122;BME280;1571;52.524;14.104;2022-07-29T12:44:44;101144.78;;;26.52;46.42
3122;BME280;1571;52.524;14.104;2022-07-29T12:47:12;101150.22;;;26.52;47.52
3122;BME280;1571;52.524;14.104;2022-07-29T12:49:40;101142.19;;;26.44;46.90
3122;BME280;1571;52.524;14.104;2022-07-29T12:52:27;101144.78;;;26.52;47.33
3122;BME280;1571;52.524;14.104;2022-07-29T12:54:56;101146.84;;;26.79;46.16
3122;BME280;1571;52.524;14.104;2022-07-29T12:57:25;101146.03;;;26.86;46.32
3122;BME280;1571;52.524;14.104;2022-07-29T13:00:04;101147.47;;;26.30;48.59
3122;BME280;1571;52.524;14.104;2022-07-29T13:02:35;101155.72;;;26.07;47.40
3122;BME280;1571;52.524;14.104;2022-07-29T13:05:05;101142.47;;;25.89;47.45
3122;BME280;1571;52.524;14.104;2022-07-29T13:07:36;101145.59;;;26.16;47.52
3122;BME280;1571;52.524;14.104;2022-07-29T13:10:23;101141.03;;;26.53;46.13
3122;BME280;1571;52.524;14.104;2022-07-29T13:13:02;101133.22;;;27.01;46.47
3122;BME280;1571;52.524;14.104;2022-07-29T13:15:31;101138.50;;;26.66;45.03
3122;BME280;1571;52.524;14.104;2022-07-29T13:17:59;101127.63;;;26.88;46.03
3122;BME280;1571;52.524;14.104;2022-07-29T13:20:29;101136.84;;;26.21;46.75
3122;BME280;1571;52.524;14.104;2022-07-29T13:23:00;101123.16;;;26.29;47.18
3122;BME280;1571;52.524;14.104;2022-07-29T13:25:29;101129.81;;;26.11;46.54
3122;BME280;1571;52.524;14.104;2022-07-29T13:27:59;101133.69;;;26.17;46.42